createdAt,value
2023-04-20T00:01:33.159Z,99831.61
2023-04-20T00:04:00.001Z,99828.07
2023-04-20T00:06:29.028Z,99829.30
2023-04-20T00:08:55.859Z,99830.11
2023-04-20T00:11:22.423Z,99826.74
2023-04-20T00:13:49.139Z,99831.11
2023-04-20T00:16:16.026Z,99828.64
2023-04-20T00:18:45.521Z,99824.89
2023-04-20T00:21:12.833Z,99825.43
2023-04-20T00:23:39.741Z,99823.20
2023-04-20T00:26:06.936Z,99822.30
2023-04-20T00:28:33.997Z,99825.72
2023-04-20T00:31:00.752Z,99821.06
2023-04-20T00:33:27.450Z,99818.80
2023-04-20T00:35:55.837Z,99817.61
2023-04-20T00:38:23.784Z,99814.89
2023-04-20T00:40:53.490Z,99808.27
2023-04-20T00:43:20.288Z,99804.60
2023-04-20T00:45:47.153Z,99804.55
2023-04-20T00:48:14.264Z,99799.45
2023-04-20T00:50:43.456Z,99797.20
2023-04-20T00:53:10.306Z,99795.79
2023-04-20T00:55:37.346Z,99792.83
2023-04-20T00:58:04.219Z,99791.75
2023-04-20T01:00:33.427Z,99791.76
2023-04-20T01:03:00.192Z,99789.71
2023-04-20T01:05:27.205Z,99784.68
2023-04-20T01:07:55.499Z,99779.45
2023-04-20T01:10:22.418Z,99781.35
2023-04-20T01:12:49.117Z,99778.38
2023-04-20T01:15:16.078Z,99774.67
2023-04-20T01:17:45.047Z,99776.27
2023-04-20T01:20:12.017Z,99778.16
2023-04-20T01:22:46.088Z,99775.53
2023-04-20T01:25:14.336Z,99776.30
2023-04-20T01:27:42.115Z,99773.84
2023-04-20T01:30:09.160Z,99774.08
2023-04-20T01:32:37.865Z,99771.52
2023-04-20T01:35:05.383Z,99773.61
2023-04-20T01:37:32.286Z,99773.95
2023-04-20T01:40:03.530Z,99771.84
2023-04-20T01:42:30.327Z,99771.73
2023-04-20T01:44:57.992Z,99770.09
2023-04-20T01:47:24.685Z,99769.10
2023-04-20T01:49:51.431Z,99768.70
2023-04-20T01:52:18.016Z,99768.00
2023-04-20T01:54:44.773Z,99765.09
2023-04-20T01:57:11.530Z,99761.02
2023-04-20T01:59:39.037Z,99758.98
2023-04-20T02:02:05.932Z,99755.20
2023-04-20T02:04:34.334Z,99757.80
2023-04-20T02:07:00.899Z,99752.61
2023-04-20T02:09:27.575Z,99753.27
2023-04-20T02:11:54.681Z,99751.30
2023-04-20T02:14:21.426Z,99752.23
2023-04-20T02:16:48.362Z,99751.70
2023-04-20T02:19:15.273Z,99753.48
2023-04-20T02:21:41.967Z,99750.85
2023-04-20T02:24:08.702Z,99744.95
2023-04-20T02:26:35.769Z,99743.77
2023-04-20T02:29:02.297Z,99743.48
2023-04-20T02:31:29.381Z,99746.77
2023-04-20T02:33:55.998Z,99744.58
2023-04-20T02:36:22.636Z,99738.33
2023-04-20T02:38:49.225Z,99738.12
2023-04-20T02:41:16.038Z,99740.05
2023-04-20T02:43:43.317Z,99736.96
2023-04-20T02:46:10.682Z,99733.89
2023-04-20T02:48:37.614Z,99731.73
2023-04-20T02:51:04.185Z,99727.43
2023-04-20T02:53:40.384Z,99728.40
2023-04-20T02:56:18.817Z,99727.91
2023-04-20T02:58:51.551Z,99726.39
2023-04-20T03:01:24.971Z,99724.66
2023-04-20T03:03:58.655Z,99720.22
2023-04-20T03:06:26.045Z,99723.86
2023-04-20T03:08:55.795Z,99723.55
2023-04-20T03:11:45.325Z,99722.61
2023-04-20T03:14:14.752Z,99720.42
2023-04-20T03:16:42.155Z,99719.36
2023-04-20T03:19:09.839Z,99724.13
2023-04-20T03:21:36.504Z,99726.40
2023-04-20T03:24:03.771Z,99724.38
2023-04-20T03:26:30.468Z,99725.05
2023-04-20T03:29:10.965Z,99722.41
2023-04-20T03:31:37.798Z,99723.31
2023-04-20T03:34:04.985Z,99725.49
2023-04-20T03:36:31.925Z,99726.93
2023-04-20T03:38:59.092Z,99723.36
2023-04-20T03:41:26.916Z,99720.81
2023-04-20T03:43:55.434Z,99720.07
2023-04-20T03:46:23.241Z,99718.96
2023-04-20T03:48:50.468Z,99717.89
2023-04-20T03:51:17.445Z,99718.30
2023-04-20T03:53:44.374Z,99715.59
2023-04-20T03:56:11.861Z,99722.90
2023-04-20T03:58:38.601Z,99721.84
2023-04-20T04:01:12.592Z,99719.90
2023-04-20T04:03:42.299Z,99719.33
2023-04-20T04:06:10.062Z,99717.65
2023-04-20T04:08:36.767Z,99717.07
2023-04-20T04:11:03.711Z,99718.39
2023-04-20T04:13:33.782Z,99715.34
2023-04-20T04:16:01.616Z,99715.81
2023-04-20T04:18:31.833Z,99719.37
2023-04-20T04:20:59.624Z,99716.48
2023-04-20T04:23:29.455Z,99717.06
2023-04-20T04:26:09.443Z,99715.70
2023-04-20T04:28:36.959Z,99716.61
2023-04-20T04:31:18.841Z,99715.13
2023-04-20T04:33:45.829Z,99719.48
2023-04-20T04:36:15.593Z,99718.05
2023-04-20T04:38:44.024Z,99721.55
2023-04-20T04:41:12.040Z,99714.06
2023-04-20T04:43:40.344Z,99716.20
2023-04-20T04:46:14.041Z,99715.50
2023-04-20T04:48:41.680Z,99714.52
2023-04-20T04:51:08.724Z,99719.15
2023-04-20T04:53:35.480Z,99716.41
2023-04-20T04:56:03.840Z,99719.13
2023-04-20T04:58:30.754Z,99719.25
2023-04-20T05:00:57.497Z,99719.84
2023-04-20T05:03:24.579Z,99724.30
2023-04-20T05:05:51.492Z,99728.40
2023-04-20T05:08:18.400Z,99729.89
2023-04-20T05:10:45.056Z,99731.91
2023-04-20T05:13:11.655Z,99730.95
2023-04-20T05:15:38.262Z,99724.38
2023-04-20T05:18:06.950Z,99723.13
2023-04-20T05:20:33.886Z,99727.98
2023-04-20T05:23:00.428Z,99721.57
2023-04-20T05:25:27.059Z,99725.70
2023-04-20T05:27:53.674Z,99723.95
2023-04-20T05:30:22.067Z,99724.52
2023-04-20T05:32:52.017Z,99726.48
2023-04-20T05:35:20.578Z,99725.25
2023-04-20T05:37:47.255Z,99729.27
2023-04-20T05:40:15.114Z,99728.92
2023-04-20T05:42:42.368Z,99730.66
2023-04-20T05:45:10.065Z,99731.39
2023-04-20T05:47:36.849Z,99734.17
2023-04-20T05:50:05.840Z,99737.98
2023-04-20T05:52:32.843Z,99733.73
2023-04-20T05:54:59.558Z,99732.08
2023-04-20T05:57:26.495Z,99734.42
2023-04-20T05:59:55.476Z,99731.34
2023-04-20T06:02:22.641Z,99734.77
2023-04-20T06:04:49.787Z,99735.48
2023-04-20T06:07:17.165Z,99733.76
2023-04-20T06:09:44.633Z,99728.39
2023-04-20T06:12:11.918Z,99728.98
2023-04-20T06:14:40.022Z,99730.11
2023-04-20T06:17:08.246Z,99728.71
2023-04-20T06:19:35.997Z,99733.89
2023-04-20T06:22:12.865Z,99732.91
2023-04-20T06:24:42.232Z,99741.69
2023-04-20T06:27:09.332Z,99730.19
2023-04-20T06:29:36.275Z,99729.81
2023-04-20T06:32:03.975Z,99728.22
2023-04-20T06:34:31.507Z,99726.27
2023-04-20T06:37:01.129Z,99727.75
2023-04-20T06:39:27.955Z,99725.16
2023-04-20T06:41:54.691Z,99723.45
2023-04-20T06:44:22.472Z,99719.69
2023-04-20T06:46:50.154Z,99713.25
2023-04-20T06:49:17.596Z,99711.07
2023-04-20T06:51:48.763Z,99703.81
2023-04-20T06:54:16.833Z,99695.62
2023-04-20T06:56:46.189Z,99698.53
2023-04-20T06:59:15.510Z,99692.96
2023-04-20T07:01:43.520Z,99693.16
2023-04-20T07:04:14.577Z,99698.64
2023-04-20T07:06:56.862Z,99692.46
2023-04-20T07:09:38.914Z,99689.36
2023-04-20T07:12:06.176Z,99686.38
2023-04-20T07:14:33.480Z,99678.52
2023-04-20T07:17:00.432Z,99676.16
2023-04-20T07:19:27.354Z,99675.39
2023-04-20T07:21:55.096Z,99678.97
2023-04-20T07:24:23.142Z,99676.21
2023-04-20T07:26:50.805Z,99684.32
2023-04-20T07:29:17.945Z,99679.38
2023-04-20T07:31:45.206Z,99676.73
2023-04-20T07:34:13.292Z,99672.91
2023-04-20T07:36:41.879Z,99675.46
2023-04-20T07:39:08.842Z,99679.64
2023-04-20T07:41:50.060Z,99676.64
2023-04-20T07:44:17.337Z,99679.19
2023-04-20T07:46:45.096Z,99684.30
2023-04-20T07:49:12.263Z,99670.59
2023-04-20T07:51:42.438Z,99673.36
2023-04-20T07:54:18.771Z,99672.70
2023-04-20T07:56:48.626Z,99675.80
2023-04-20T07:59:15.824Z,99669.95
2023-04-20T08:01:46.017Z,99675.27
2023-04-20T08:04:13.204Z,99676.90
2023-04-20T08:06:43.379Z,99678.06
2023-04-20T08:09:14.015Z,99683.41
2023-04-20T08:11:41.015Z,99685.64
2023-04-20T08:14:10.441Z,99680.69
2023-04-20T08:16:40.076Z,99682.50
2023-04-20T08:19:12.373Z,99688.30
2023-04-20T08:21:43.022Z,99680.45
2023-04-20T08:24:09.972Z,99687.11
2023-04-20T08:26:36.801Z,99684.56
2023-04-20T08:29:03.801Z,99685.52
2023-04-20T08:31:32.369Z,99689.13
2023-04-20T08:33:59.911Z,99689.95
2023-04-20T08:36:27.728Z,99690.70
2023-04-20T08:38:58.373Z,99687.82
2023-04-20T08:41:25.678Z,99686.25
2023-04-20T08:43:52.347Z,99691.38
2023-04-20T08:46:22.368Z,99689.27
2023-04-20T08:48:49.691Z,99692.91
2023-04-20T08:51:17.568Z,99687.37
2023-04-20T08:53:47.085Z,99691.77
2023-04-20T08:56:16.672Z,99692.75
2023-04-20T08:58:46.358Z,99688.89
2023-04-20T09:01:34.344Z,99696.34
2023-04-20T09:04:29.090Z,99698.94
2023-04-20T09:06:58.285Z,99696.95
2023-04-20T09:09:30.826Z,99705.33
2023-04-20T09:12:05.047Z,99711.73
2023-04-20T09:14:49.299Z,99707.42
2023-04-20T09:17:47.846Z,99706.90
2023-04-20T09:20:57.355Z,99704.66
2023-04-20T09:23:25.868Z,99702.90
2023-04-20T09:25:53.858Z,99698.52
2023-04-20T09:28:21.528Z,99695.11
2023-04-20T09:30:50.129Z,99696.06
2023-04-20T09:33:21.055Z,99692.73
2023-04-20T09:35:48.347Z,99688.55
2023-04-20T09:38:15.815Z,99696.11
2023-04-20T09:40:43.781Z,99695.33
2023-04-20T09:43:17.851Z,99692.61
2023-04-20T09:45:45.307Z,99692.50
2023-04-20T09:48:18.251Z,99699.54
2023-04-20T09:50:49.252Z,99698.17
2023-04-20T09:53:19.954Z,99690.71
2023-04-20T09:56:10.467Z,99694.84
2023-04-20T09:58:43.927Z,99690.89
2023-04-20T10:01:37.460Z,99684.94
2023-04-20T10:04:09.293Z,99687.31
2023-04-20T10:07:11.622Z,99686.30
2023-04-20T10:09:38.708Z,99688.75
2023-04-20T10:12:06.947Z,99693.05
2023-04-20T10:14:36.449Z,99692.46
2023-04-20T10:17:04.941Z,99691.25
2023-04-20T10:19:58.713Z,99691.84
2023-04-20T10:22:32.573Z,99694.93
2023-04-20T10:25:00.711Z,99696.63
2023-04-20T10:27:32.077Z,99702.88
2023-04-20T10:30:09.742Z,99702.45
2023-04-20T10:32:40.874Z,99702.74
2023-04-20T10:35:21.216Z,99704.92
2023-04-20T10:38:59.759Z,99701.77
2023-04-20T10:42:17.450Z,99704.47
2023-04-20T10:44:49.127Z,99705.14
2023-04-20T10:47:17.433Z,99702.45
2023-04-20T10:49:44.781Z,99706.20
2023-04-20T10:52:13.820Z,99705.99
2023-04-20T10:54:51.062Z,99712.13
2023-04-20T10:57:20.090Z,99713.48
2023-04-20T11:00:02.692Z,99717.15
2023-04-20T11:02:45.131Z,99713.46
2023-04-20T11:05:20.001Z,99712.04
2023-04-20T11:08:00.667Z,99712.56
2023-04-20T11:10:42.508Z,99715.23
2023-04-20T11:13:24.770Z,99717.80
2023-04-20T11:15:52.927Z,99724.55
2023-04-20T11:18:43.532Z,99726.69
2023-04-20T11:21:15.698Z,99728.66
2023-04-20T11:23:46.722Z,99728.17
2023-04-20T11:26:17.768Z,99732.91
2023-04-20T11:28:55.594Z,99734.84
2023-04-20T11:31:23.964Z,99736.52
2023-04-20T11:33:55.592Z,99736.15
2023-04-20T11:36:25.396Z,99736.04
2023-04-20T11:38:55.420Z,99728.83
2023-04-20T11:41:24.026Z,99731.88
2023-04-20T11:43:50.793Z,99727.48
2023-04-20T11:46:19.715Z,99730.52
2023-04-20T11:49:14.437Z,99725.21
2023-04-20T11:52:07.421Z,99722.66
2023-04-20T11:58:03.803Z,99717.88
2023-04-20T12:00:39.273Z,99718.90
2023-04-20T12:03:07.491Z,99719.55
2023-04-20T12:05:38.331Z,99713.36
2023-04-20T12:08:21.166Z,99711.42
2023-04-20T12:11:04.734Z,99705.45
2023-04-20T12:13:41.511Z,99706.89
2023-04-20T12:16:35.086Z,99704.95
2023-04-20T12:19:03.199Z,99709.81
2023-04-20T12:21:33.706Z,99707.13
2023-04-20T12:24:07.392Z,99706.72
2023-04-20T12:26:38.637Z,99709.05
2023-04-20T12:29:07.421Z,99707.02
2023-04-20T12:31:40.360Z,99707.02
2023-04-20T12:34:07.443Z,99707.31
2023-04-20T12:36:34.323Z,99700.89
2023-04-20T12:39:03.029Z,99703.15
2023-04-20T12:41:30.170Z,99701.12
2023-04-20T12:43:58.484Z,99699.52
2023-04-20T12:46:25.644Z,99701.05
2023-04-20T12:48:53.202Z,99699.69
2023-04-20T12:51:33.933Z,99704.34
2023-04-20T12:54:28.191Z,99700.84
2023-04-20T12:57:02.094Z,99702.48
2023-04-20T12:59:29.631Z,99710.80
2023-04-20T13:01:58.943Z,99700.82
2023-04-20T13:04:28.990Z,99701.34
2023-04-20T13:07:02.446Z,99695.50
2023-04-20T13:09:29.968Z,99694.93
2023-04-20T13:11:58.786Z,99692.73
2023-04-20T13:14:29.069Z,99695.07
2023-04-20T13:17:01.143Z,99700.27
2023-04-20T13:19:30.419Z,99699.97
2023-04-20T13:22:08.319Z,99698.85
2023-04-20T13:24:35.427Z,99707.55
2023-04-20T13:27:03.119Z,99710.05
2023-04-20T13:29:32.822Z,99724.54
2023-04-20T13:32:00.638Z,99736.09
2023-04-20T13:37:33.935Z,99716.40
2023-04-20T13:40:09.419Z,99720.32
2023-04-20T13:42:36.686Z,99716.61
2023-04-20T13:45:04.415Z,99709.04
2023-04-20T13:47:31.402Z,99705.37
2023-04-20T13:49:59.089Z,99701.53
2023-04-20T13:52:26.113Z,99702.44
2023-04-20T13:54:52.884Z,99700.23
2023-04-20T13:57:19.732Z,99706.90
2023-04-20T13:59:49.002Z,99710.64
2023-04-20T14:02:19.126Z,99706.68
2023-04-20T14:04:46.208Z,99710.00
2023-04-20T14:07:13.265Z,99704.02
2023-04-20T14:09:40.029Z,99704.70
2023-04-20T14:12:08.111Z,99698.69
2023-04-20T14:14:35.053Z,99693.83
2023-04-20T14:17:01.774Z,99681.70
2023-04-20T14:19:29.182Z,99678.85
2023-04-20T14:21:56.277Z,99674.53
2023-04-20T14:24:23.178Z,99681.73
2023-04-20T14:27:00.199Z,99674.33
2023-04-20T14:29:27.363Z,99673.37
2023-04-20T14:31:55.387Z,99670.02
2023-04-20T14:34:22.696Z,99666.68
2023-04-20T14:36:50.176Z,99665.83
2023-04-20T14:39:18.836Z,99665.48
2023-04-20T14:41:50.391Z,99671.27
2023-04-20T14:44:17.438Z,99676.20
2023-04-20T14:46:44.465Z,99678.95
2023-04-20T14:49:12.011Z,99676.48
2023-04-20T14:51:42.443Z,99674.60
2023-04-20T14:54:09.279Z,99673.58
2023-04-20T14:56:36.505Z,99679.27
2023-04-20T14:59:04.313Z,99680.17
2023-04-20T15:01:31.434Z,99686.92
2023-04-20T15:03:58.801Z,99688.98
2023-04-20T15:06:27.700Z,99694.63
2023-04-20T15:08:55.869Z,99693.39
2023-04-20T15:11:22.767Z,99692.25
2023-04-20T15:13:52.064Z,99689.88
2023-04-20T15:16:18.928Z,99693.54
2023-04-20T15:18:46.531Z,99693.72
2023-04-20T15:21:13.513Z,99688.93
2023-04-20T15:23:40.934Z,99685.80
2023-04-20T15:26:08.526Z,99684.89
2023-04-20T15:28:36.715Z,99675.60
2023-04-20T15:31:06.998Z,99675.48
2023-04-20T15:33:34.557Z,99675.63
2023-04-20T15:36:01.510Z,99675.23
2023-04-20T15:38:30.003Z,99671.38
2023-04-20T15:41:04.581Z,99667.83
2023-04-20T15:43:32.386Z,99668.52
2023-04-20T15:46:01.496Z,99672.73
2023-04-20T15:48:28.631Z,99673.80
2023-04-20T15:50:56.822Z,99665.19
2023-04-20T15:53:24.625Z,99663.20
2023-04-20T15:55:52.813Z,99662.34
2023-04-20T15:58:20.776Z,99658.16
2023-04-20T16:00:49.024Z,99654.09
2023-04-20T16:03:17.443Z,99650.75
2023-04-20T16:05:46.427Z,99652.55
2023-04-20T16:08:18.319Z,99658.16
2023-04-20T16:10:47.483Z,99657.50
2023-04-20T16:13:14.412Z,99655.37
2023-04-20T16:15:41.300Z,99657.46
2023-04-20T16:18:10.874Z,99656.27
2023-04-20T16:20:40.688Z,99658.48
2023-04-20T16:23:08.791Z,99662.48
2023-04-20T16:25:41.590Z,99662.16
2023-04-20T16:28:08.468Z,99657.43
2023-04-20T16:30:38.567Z,99659.33
2023-04-20T16:33:05.724Z,99662.02
2023-04-20T16:35:34.600Z,99657.41
2023-04-20T16:38:02.329Z,99655.39
2023-04-20T16:40:29.441Z,99661.02
2023-04-20T16:42:57.144Z,99660.98
2023-04-20T16:45:23.939Z,99660.45
2023-04-20T16:47:50.796Z,99656.41
2023-04-20T16:50:19.845Z,99652.45
2023-04-20T16:52:47.055Z,99650.59
2023-04-20T16:55:13.782Z,99650.02
2023-04-20T16:57:41.455Z,99652.29
2023-04-20T17:00:09.872Z,99657.29
2023-04-20T17:02:37.546Z,99652.14
2023-04-20T17:05:05.172Z,99649.25
2023-04-20T17:07:32.566Z,99648.18
2023-04-20T17:09:59.345Z,99651.27
2023-04-20T17:12:25.911Z,99649.42
2023-04-20T17:14:53.864Z,99649.78
2023-04-20T17:17:20.466Z,99646.76
2023-04-20T17:19:47.077Z,99645.89
2023-04-20T17:22:13.988Z,99642.64
2023-04-20T17:24:40.840Z,99647.79
2023-04-20T17:27:07.740Z,99646.85
2023-04-20T17:29:37.653Z,99652.16
2023-04-20T17:32:05.355Z,99650.14
2023-04-20T17:34:32.396Z,99650.68
2023-04-20T17:36:59.177Z,99647.66
2023-04-20T17:39:26.051Z,99645.66
2023-04-20T17:41:52.959Z,99647.52
2023-04-20T17:44:19.925Z,99645.79
2023-04-20T17:46:49.036Z,99646.05
2023-04-20T17:49:15.794Z,99647.54
2023-04-20T17:51:42.324Z,99647.98
2023-04-20T17:54:10.606Z,99649.42
2023-04-20T17:56:37.322Z,99647.24
2023-04-20T17:59:04.789Z,99650.71
2023-04-20T18:01:34.140Z,99653.36
2023-04-20T18:04:01.934Z,99652.89
2023-04-20T18:06:30.072Z,99654.61
2023-04-20T18:08:57.667Z,99654.15
2023-04-20T18:11:24.321Z,99652.45
2023-04-20T18:13:51.371Z,99656.64
2023-04-20T18:16:20.415Z,99654.05
2023-04-20T18:18:48.114Z,99657.23
2023-04-20T18:21:14.846Z,99656.84
2023-04-20T18:23:41.715Z,99656.92
2023-04-20T18:26:16.692Z,99656.95
2023-04-20T18:28:44.229Z,99656.88
2023-04-20T18:31:11.137Z,99652.59
2023-04-20T18:33:37.865Z,99655.39
2023-04-20T18:36:05.075Z,99650.52
2023-04-20T18:38:32.493Z,99655.73
2023-04-20T18:40:59.290Z,99658.04
2023-04-20T18:43:26.192Z,99670.83
2023-04-20T18:45:52.867Z,99683.11
2023-04-20T18:48:19.823Z,99686.07
2023-04-20T18:50:48.048Z,99681.92
2023-04-20T18:53:15.393Z,99682.67
2023-04-20T18:55:42.007Z,99690.66
2023-04-20T18:58:08.654Z,99696.18
2023-04-20T19:00:35.568Z,99702.09
2023-04-20T19:03:02.526Z,99699.66
2023-04-20T19:05:30.391Z,99700.75
2023-04-20T19:07:57.171Z,99699.61
2023-04-20T19:10:25.073Z,99704.17
2023-04-20T19:12:51.823Z,99711.52
2023-04-20T19:15:24.942Z,99717.01
2023-04-20T19:17:53.695Z,99715.73
2023-04-20T19:20:20.950Z,99719.38
2023-04-20T19:22:48.236Z,99718.95
2023-04-20T19:25:15.376Z,99721.71
2023-04-20T19:27:42.415Z,99721.88
2023-04-20T19:30:09.367Z,99719.44
2023-04-20T19:32:36.473Z,99720.94
2023-04-20T19:35:03.668Z,99721.27
2023-04-20T19:37:31.430Z,99723.44
2023-04-20T19:39:58.560Z,99721.54
2023-04-20T19:42:25.740Z,99717.85
2023-04-20T19:44:53.007Z,99716.95
2023-04-20T19:47:20.491Z,99717.14
2023-04-20T19:49:50.260Z,99717.42
2023-04-20T19:52:17.369Z,99715.88
2023-04-20T19:54:44.073Z,99717.37
2023-04-20T19:57:12.276Z,99718.64
2023-04-20T19:59:41.086Z,99716.36
2023-04-20T20:02:08.033Z,99721.79
2023-04-20T20:04:37.238Z,99722.18
2023-04-20T20:07:04.495Z,99724.81
2023-04-20T20:09:32.498Z,99717.15
2023-04-20T20:12:00.495Z,99713.45
2023-04-20T20:14:27.230Z,99711.88
2023-04-20T20:16:55.919Z,99712.73
2023-04-20T20:19:23.094Z,99718.29
2023-04-20T20:21:50.240Z,99723.63
2023-04-20T20:24:22.332Z,99726.70
2023-04-20T20:26:49.111Z,99721.86
2023-04-20T20:29:16.268Z,99717.66
2023-04-20T20:31:48.769Z,99718.11
2023-04-20T20:34:15.799Z,99715.48
2023-04-20T20:36:44.421Z,99718.59
2023-04-20T20:39:12.030Z,99714.94
2023-04-20T20:41:42.185Z,99714.08
2023-04-20T20:44:11.904Z,99713.77
2023-04-20T20:46:41.601Z,99713.04
2023-04-20T20:49:10.844Z,99714.97
2023-04-20T20:51:37.622Z,99713.70
2023-04-20T20:54:06.329Z,99714.60
2023-04-20T20:56:33.082Z,99713.52
2023-04-20T20:58:59.851Z,99714.73
2023-04-20T21:01:26.811Z,99712.88
2023-04-20T21:03:53.761Z,99713.17
2023-04-20T21:06:21.651Z,99708.85
2023-04-20T21:08:48.198Z,99709.52
2023-04-20T21:11:14.951Z,99706.27
2023-04-20T21:13:41.757Z,99703.83
2023-04-20T21:16:08.432Z,99704.89
2023-04-20T21:18:35.576Z,99708.80
2023-04-20T21:21:02.368Z,99713.39
2023-04-20T21:23:29.011Z,99713.84
2023-04-20T21:25:55.694Z,99705.77
2023-04-20T21:28:22.482Z,99703.32
2023-04-20T21:30:48.974Z,99705.70
2023-04-20T21:33:15.583Z,99701.33
2023-04-20T21:35:46.826Z,99700.66
2023-04-20T21:38:19.523Z,99698.04
2023-04-20T21:40:46.093Z,99698.86
2023-04-20T21:43:13.718Z,99697.61
2023-04-20T21:45:40.290Z,99694.33
2023-04-20T21:48:10.163Z,99687.91
2023-04-20T21:50:37.012Z,99687.29
2023-04-20T21:53:03.621Z,99681.16
2023-04-20T21:55:30.230Z,99677.02
2023-04-20T21:57:57.071Z,99679.73
2023-04-20T22:00:24.451Z,99677.66
2023-04-20T22:02:51.593Z,99680.87
2023-04-20T22:05:18.486Z,99678.52
2023-04-20T22:07:45.518Z,99675.36
2023-04-20T22:10:12.116Z,99677.50
2023-04-20T22:12:41.803Z,99669.77
2023-04-20T22:15:11.390Z,99663.39
2023-04-20T22:17:38.454Z,99663.00
2023-04-20T22:20:08.746Z,99658.68
2023-04-20T22:22:35.971Z,99657.73
2023-04-20T22:25:04.005Z,99655.95
2023-04-20T22:27:32.031Z,99664.51
2023-04-20T22:29:58.739Z,99663.14
2023-04-20T22:32:27.881Z,99659.64
2023-04-20T22:34:57.498Z,99653.07
2023-04-20T22:37:24.272Z,99647.77
2023-04-20T22:39:50.947Z,99645.83
2023-04-20T22:42:17.489Z,99643.35
2023-04-20T22:44:45.075Z,99640.55
2023-04-20T22:47:11.910Z,99639.23
2023-04-20T22:49:38.531Z,99640.25
2023-04-20T22:52:05.268Z,99637.95
2023-04-20T22:54:32.174Z,99636.92
2023-04-20T22:56:58.849Z,99639.74
2023-04-20T22:59:25.571Z,99630.63
2023-04-20T23:01:52.112Z,99629.69
2023-04-20T23:04:19.150Z,99623.13
2023-04-20T23:06:48.622Z,99621.66
2023-04-20T23:09:19.771Z,99619.57
2023-04-20T23:11:46.583Z,99618.02
2023-04-20T23:14:14.173Z,99620.64
2023-04-20T23:16:41.018Z,99623.48
2023-04-20T23:19:07.733Z,99623.16
2023-04-20T23:21:34.281Z,99619.02
2023-04-20T23:24:00.924Z,99620.49
2023-04-20T23:26:27.964Z,99619.43
2023-04-20T23:28:54.595Z,99621.48
2023-04-20T23:31:21.261Z,99623.95
2023-04-20T23:33:48.252Z,99623.08
2023-04-20T23:36:15.162Z,99625.38
2023-04-20T23:38:42.002Z,99623.04
2023-04-20T23:41:09.546Z,99626.89
2023-04-20T23:43:37.888Z,99629.79
2023-04-20T23:46:05.741Z,99630.07
2023-04-20T23:48:32.942Z,99632.95
2023-04-20T23:51:02.830Z,99634.17
2023-04-20T23:53:29.690Z,99636.88
2023-04-20T23:55:56.390Z,99635.52
2023-04-20T23:58:26.748Z,99634.66
